createdAt,value
2019-01-26T00:02:48.989Z,90.76
2019-01-26T00:07:54.175Z,90.57
2019-01-26T00:13:00.055Z,90.34
2019-01-26T00:18:05.539Z,89.99
2019-01-26T00:23:10.850Z,89.96
2019-01-26T00:28:16.055Z,90.36
2019-01-26T00:33:21.257Z,90.96
2019-01-26T00:38:26.440Z,91.83
2019-01-26T00:43:31.636Z,92.55
2019-01-26T00:48:37.719Z,93.25
2019-01-26T00:53:42.990Z,93.70
2019-01-26T00:58:48.493Z,93.96
2019-01-26T01:03:53.899Z,94.03
2019-01-26T01:08:59.775Z,94.02
2019-01-26T01:14:05.067Z,93.96
2019-01-26T01:19:11.008Z,93.69
2019-01-26T01:24:16.285Z,93.39
2019-01-26T01:29:21.834Z,93.37
2019-01-26T01:34:28.086Z,92.64
2019-01-26T01:39:33.362Z,91.95
2019-01-26T01:44:38.710Z,91.26
2019-01-26T01:49:43.903Z,90.33
2019-01-26T01:54:49.142Z,89.62
2019-01-26T01:59:54.330Z,89.53
2019-01-26T02:05:00.273Z,90.43
2019-01-26T02:10:07.488Z,91.03
2019-01-26T02:15:13.418Z,91.88
2019-01-26T02:20:23.200Z,92.72
2019-01-26T02:25:28.808Z,93.32
2019-01-26T02:30:34.010Z,94.09
2019-01-26T02:35:39.197Z,94.23
2019-01-26T02:40:45.050Z,94.40
2019-01-26T02:45:50.246Z,94.39
2019-01-26T02:50:56.413Z,93.95
2019-01-26T02:56:01.611Z,93.94
2019-01-26T03:01:07.137Z,93.80
2019-01-26T03:06:12.332Z,94.45
2019-01-26T03:11:17.519Z,95.03
2019-01-26T03:16:23.609Z,95.47
2019-01-26T03:21:29.756Z,95.82
2019-01-26T03:26:34.975Z,95.74
2019-01-26T03:31:40.982Z,95.67
2019-01-26T03:36:46.196Z,95.25
2019-01-26T03:41:51.970Z,95.27
2019-01-26T03:46:57.170Z,95.35
2019-01-26T03:52:02.402Z,95.66
2019-01-26T03:57:07.597Z,95.68
2019-01-26T04:02:13.320Z,95.92
2019-01-26T04:07:18.498Z,96.23
2019-01-26T04:12:23.723Z,96.22
2019-01-26T04:17:28.919Z,96.40
2019-01-26T04:22:34.134Z,96.32
2019-01-26T04:27:39.320Z,96.58
2019-01-26T04:32:44.892Z,96.60
2019-01-26T04:37:50.544Z,96.37
2019-01-26T04:42:55.764Z,96.30
2019-01-26T04:48:02.008Z,96.38
2019-01-26T04:53:07.214Z,96.52
2019-01-26T04:58:13.000Z,96.55
2019-01-26T05:03:18.530Z,96.75
2019-01-26T05:08:23.771Z,96.78
2019-01-26T05:13:28.951Z,96.88
2019-01-26T05:18:35.205Z,97.17
2019-01-26T05:23:40.546Z,97.23
2019-01-26T05:28:45.752Z,97.42
2019-01-26T05:33:50.935Z,97.44
2019-01-26T05:38:56.110Z,97.48
2019-01-26T05:44:01.408Z,97.59
2019-01-26T05:49:06.603Z,97.68
2019-01-26T05:54:11.833Z,97.72
2019-01-26T05:59:17.425Z,97.78
2019-01-26T06:04:23.274Z,97.78
2019-01-26T06:09:28.493Z,97.81
2019-01-26T06:14:33.724Z,97.85
2019-01-26T06:19:39.605Z,97.88
2019-01-26T06:24:44.812Z,97.94
2019-01-26T06:29:50.694Z,97.99
2019-01-26T06:34:56.307Z,98.10
2019-01-26T06:40:01.609Z,98.18
2019-01-26T06:45:07.889Z,98.29
2019-01-26T06:50:15.778Z,98.28
2019-01-26T06:55:21.075Z,98.28
2019-01-26T07:00:31.664Z,98.38
2019-01-26T07:05:51.309Z,98.42
2019-01-26T07:10:56.564Z,98.45
2019-01-26T07:16:03.029Z,98.57
2019-01-26T07:21:08.289Z,98.60
2019-01-26T07:26:13.850Z,98.60
2019-01-26T07:31:19.199Z,98.59
2019-01-26T07:36:24.403Z,98.59
2019-01-26T07:41:29.606Z,98.62
2019-01-26T07:46:35.137Z,98.63
2019-01-26T07:51:40.583Z,98.59
2019-01-26T07:56:45.764Z,98.56
2019-01-26T08:01:51.154Z,98.48
2019-01-26T08:06:57.169Z,98.35
2019-01-26T08:12:02.785Z,98.22
2019-01-26T08:17:08.995Z,98.06
2019-01-26T08:22:14.498Z,97.85
2019-01-26T08:27:19.966Z,97.49
2019-01-26T08:32:25.615Z,97.14
2019-01-26T08:37:31.242Z,96.79
2019-01-26T08:42:36.758Z,96.40
2019-01-26T08:47:42.732Z,96.26
2019-01-26T08:52:48.069Z,96.31
2019-01-26T08:57:54.388Z,96.29
2019-01-26T09:03:17.362Z,96.35
2019-01-26T09:08:22.568Z,96.33
2019-01-26T09:13:30.264Z,96.06
2019-01-26T09:18:38.965Z,96.08
2019-01-26T09:23:43.678Z,95.96
2019-01-26T09:28:51.334Z,95.80
2019-01-26T09:33:56.747Z,95.38
2019-01-26T09:39:03.154Z,95.22
2019-01-26T09:44:09.426Z,95.02
2019-01-26T09:49:14.619Z,94.55
2019-01-26T09:54:20.451Z,94.60
2019-01-26T09:59:26.094Z,94.50
2019-01-26T10:04:31.789Z,94.33
2019-01-26T10:09:37.966Z,94.36
2019-01-26T10:14:44.032Z,94.32
2019-01-26T10:19:49.593Z,94.40
2019-01-26T10:24:56.756Z,94.31
2019-01-26T10:30:04.444Z,94.23
2019-01-26T10:35:10.589Z,94.37
2019-01-26T10:40:38.701Z,94.37
2019-01-26T10:45:45.073Z,94.47
2019-01-26T10:50:52.611Z,94.59
2019-01-26T10:56:00.038Z,94.82
2019-01-26T11:01:07.598Z,94.80
2019-01-26T11:06:15.051Z,94.81
2019-01-26T11:11:22.233Z,94.78
2019-01-26T11:16:29.645Z,94.93
2019-01-26T11:21:36.605Z,95.43
2019-01-26T11:26:49.075Z,96.31
2019-01-26T11:31:51.857Z,95.99
2019-01-26T11:36:58.554Z,96.07
2019-01-26T11:42:05.371Z,96.08
2019-01-26T11:47:16.838Z,95.85
2019-01-26T11:52:24.503Z,94.92
2019-01-26T11:57:34.390Z,94.12
2019-01-26T12:02:47.664Z,94.17
2019-01-26T12:07:55.080Z,93.75
2019-01-26T12:13:02.675Z,93.51
2019-01-26T12:18:10.958Z,93.46
2019-01-26T12:23:18.309Z,93.27
2019-01-26T12:28:26.220Z,93.40
2019-01-26T12:33:33.584Z,93.15
2019-01-26T12:38:41.584Z,93.15
2019-01-26T12:43:49.038Z,92.33
2019-01-26T12:48:56.199Z,92.40
2019-01-26T12:54:03.687Z,91.85
2019-01-26T12:59:11.008Z,91.58
2019-01-26T13:04:18.704Z,91.76
2019-01-26T13:09:26.622Z,91.86
2019-01-26T13:14:35.973Z,90.95
2019-01-26T13:19:43.489Z,90.73
2019-01-26T13:24:50.977Z,90.46
2019-01-26T13:29:58.516Z,90.68
2019-01-26T13:35:06.503Z,90.64
2019-01-26T13:40:17.044Z,90.54
2019-01-26T13:45:25.940Z,90.57
2019-01-26T13:50:33.977Z,91.07
2019-01-26T13:55:42.820Z,91.11
2019-01-26T14:00:50.911Z,91.71
2019-01-26T14:05:57.931Z,92.02
2019-01-26T14:11:05.840Z,91.66
2019-01-26T14:16:15.140Z,92.26
2019-01-26T14:21:23.200Z,93.04
2019-01-26T14:26:31.143Z,93.49
2019-01-26T14:31:38.816Z,93.14
2019-01-26T14:36:46.896Z,92.84
2019-01-26T14:41:54.177Z,92.87
2019-01-26T14:47:01.607Z,92.72
2019-01-26T14:52:09.454Z,92.95
2019-01-26T14:57:16.614Z,92.60
2019-01-26T15:02:24.528Z,92.47
2019-01-26T15:07:31.898Z,92.40
2019-01-26T15:12:39.452Z,92.62
2019-01-26T15:17:46.944Z,91.69
2019-01-26T15:22:54.288Z,91.25
2019-01-26T15:28:02.571Z,91.23
2019-01-26T15:33:11.291Z,91.24
2019-01-26T15:38:19.631Z,90.80
2019-01-26T15:43:27.227Z,90.88
2019-01-26T15:48:35.387Z,90.52
2019-01-26T15:53:43.347Z,90.46
2019-01-26T15:58:51.768Z,89.88
2019-01-26T16:03:59.326Z,89.60
2019-01-26T16:09:08.780Z,89.56
2019-01-26T16:14:17.059Z,89.21
2019-01-26T16:19:25.671Z,89.07
2019-01-26T16:24:33.660Z,88.51
2019-01-26T16:29:43.381Z,88.03
2019-01-26T16:34:52.318Z,88.35
2019-01-26T16:40:02.230Z,88.09
2019-01-26T16:45:16.381Z,88.08
2019-01-26T16:50:28.013Z,87.73
2019-01-26T16:55:35.977Z,87.79
2019-01-26T17:00:45.966Z,87.93
2019-01-26T17:05:55.075Z,87.82
2019-01-26T17:11:03.716Z,87.98
2019-01-26T17:16:11.885Z,87.81
2019-01-26T17:21:20.198Z,89.67
2019-01-26T17:26:27.919Z,91.01
2019-01-26T17:31:35.421Z,91.74
2019-01-26T17:36:42.705Z,92.33
2019-01-26T17:41:50.790Z,92.52
2019-01-26T17:46:58.605Z,92.85
2019-01-26T17:52:06.336Z,93.00
2019-01-26T17:57:14.572Z,93.10
2019-01-26T18:02:22.403Z,93.11
2019-01-26T18:07:30.433Z,93.43
2019-01-26T18:12:38.614Z,93.56
2019-01-26T18:17:46.903Z,93.49
2019-01-26T18:22:55.430Z,92.85
2019-01-26T18:28:03.441Z,92.74
2019-01-26T18:33:12.537Z,92.76
2019-01-26T18:38:21.337Z,92.76
2019-01-26T18:43:30.209Z,92.87
2019-01-26T18:48:39.140Z,92.75
2019-01-26T18:53:48.271Z,92.67
2019-01-26T18:58:58.209Z,92.88
2019-01-26T19:04:27.943Z,92.74
2019-01-26T19:09:37.616Z,92.42
2019-01-26T19:14:47.716Z,92.28
2019-01-26T19:19:58.136Z,92.25
2019-01-26T19:25:10.603Z,92.29
2019-01-26T19:30:22.309Z,91.82
2019-01-26T19:35:32.657Z,91.89
2019-01-26T19:40:43.427Z,91.72
2019-01-26T19:45:55.919Z,91.38
2019-01-26T19:51:09.855Z,91.47
2019-01-26T19:56:16.916Z,91.31
2019-01-26T20:01:27.120Z,90.73
2019-01-26T20:06:37.292Z,90.35
2019-01-26T20:11:49.873Z,89.52
2019-01-26T20:17:00.165Z,89.60
2019-01-26T20:22:09.996Z,89.96
2019-01-26T20:27:19.439Z,90.05
2019-01-26T20:32:33.716Z,89.88
2019-01-26T20:37:44.383Z,90.19
2019-01-26T20:42:53.856Z,90.46
2019-01-26T20:48:05.553Z,90.67
2019-01-26T20:53:16.216Z,90.61
2019-01-26T20:58:25.925Z,90.39
2019-01-26T21:03:36.161Z,90.14
2019-01-26T21:08:47.187Z,90.10
2019-01-26T21:13:57.160Z,89.96
2019-01-26T21:19:06.076Z,89.76
2019-01-26T21:24:15.547Z,89.78
2019-01-26T21:29:28.116Z,89.62
2019-01-26T21:34:37.155Z,89.85
2019-01-26T21:39:47.042Z,88.82
2019-01-26T21:44:55.600Z,88.74
2019-01-26T21:50:07.365Z,88.28
2019-01-26T21:55:16.273Z,88.83
2019-01-26T22:00:30.336Z,88.89
2019-01-26T22:05:38.185Z,89.10
2019-01-26T22:10:45.889Z,89.84
2019-01-26T22:15:53.972Z,90.50
2019-01-26T22:21:01.476Z,90.90
2019-01-26T22:26:09.987Z,91.19
2019-01-26T22:31:17.812Z,91.25
2019-01-26T22:36:26.713Z,91.38
2019-01-26T22:41:34.735Z,91.32
2019-01-26T22:46:42.463Z,91.15
2019-01-26T22:51:53.433Z,91.52
2019-01-26T22:56:58.212Z,91.61
2019-01-26T23:02:04.343Z,91.74
2019-01-26T23:07:21.271Z,91.71
2019-01-26T23:12:48.019Z,91.81
2019-01-26T23:18:38.239Z,91.75
2019-01-26T23:24:32.840Z,91.92
2019-01-26T23:29:47.483Z,92.15
2019-01-26T23:34:52.662Z,92.13
2019-01-26T23:39:58.750Z,92.49
2019-01-26T23:45:04.716Z,92.36
2019-01-26T23:50:09.900Z,92.34
2019-01-26T23:55:16.762Z,91.62
